sensor_id;sensor_type;location;lat;lon;timestamp;temperature;humidity
4739;DHT22;2383;48.632;10.156;2024-03-06T00:03:42;6.50;99.90
4739;DHT22;2383;48.632;10.156;2024-03-06T00:07:44;6.60;99.90
4739;DHT22;2383;48.632;10.156;2024-03-06T00:11:46;6.60;99.90
4739;DHT22;2383;48.632;10.156;2024-03-06T00:15:48;6.60;99.90
4739;DHT22;2383;48.632;10.156;2024-03-06T00:19:50;6.80;99.90
4739;DHT22;2383;48.632;10.156;2024-03-06T00:23:52;6.60;99.90
4739;DHT22;2383;48.632;10.156;2024-03-06T00:27:54;7.00;99.90
4739;DHT22;2383;48.632;10.156;2024-03-06T00:31:56;6.90;99.90
4739;DHT22;2383;48.632;10.156;2024-03-06T00:35:58;6.70;99.90
4739;DHT22;2383;48.632;10.156;2024-03-06T00:40:00;6.60;99.90
4739;DHT22;2383;48.632;10.156;2024-03-06T00:44:03;6.60;99.90
4739;DHT22;2383;48.632;10.156;2024-03-06T00:48:05;6.40;99.90
4739;DHT22;2383;48.632;10.156;2024-03-06T00:52:07;6.60;99.90
4739;DHT22;2383;48.632;10.156;2024-03-06T00:56:11;6.50;99.90
4739;DHT22;2383;48.632;10.156;2024-03-06T01:00:13;6.70;99.90
4739;DHT22;2383;48.632;10.156;2024-03-06T01:04:17;6.50;99.90
4739;DHT22;2383;48.632;10.156;2024-03-06T01:08:19;6.40;99.90
4739;DHT22;2383;48.632;10.156;2024-03-06T01:12:21;6.60;99.90
4739;DHT22;2383;48.632;10.156;2024-03-06T01:16:23;6.50;99.90
4739;DHT22;2383;48.632;10.156;2024-03-06T01:20:25;6.50;99.90
4739;DHT22;2383;48.632;10.156;2024-03-06T01:24:28;6.50;99.90
4739;DHT22;2383;48.632;10.156;2024-03-06T01:28:29;6.90;99.90
4739;DHT22;2383;48.632;10.156;2024-03-06T01:32:32;6.60;99.90
4739;DHT22;2383;48.632;10.156;2024-03-06T01:36:35;6.60;99.90
4739;DHT22;2383;48.632;10.156;2024-03-06T01:40:37;6.40;99.90
4739;DHT22;2383;48.632;10.156;2024-03-06T01:44:39;6.80;99.90
4739;DHT22;2383;48.632;10.156;2024-03-06T01:48:41;6.70;99.90
4739;DHT22;2383;48.632;10.156;2024-03-06T01:52:45;6.80;99.90
4739;DHT22;2383;48.632;10.156;2024-03-06T01:56:49;6.50;99.90
4739;DHT22;2383;48.632;10.156;2024-03-06T02:00:51;6.80;99.90
4739;DHT22;2383;48.632;10.156;2024-03-06T02:04:55;6.80;99.90
4739;DHT22;2383;48.632;10.156;2024-03-06T02:08:59;6.80;99.90
4739;DHT22;2383;48.632;10.156;2024-03-06T02:13:01;6.80;99.90
4739;DHT22;2383;48.632;10.156;2024-03-06T02:17:03;6.50;99.90
4739;DHT22;2383;48.632;10.156;2024-03-06T02:21:05;6.80;99.90
4739;DHT22;2383;48.632;10.156;2024-03-06T02:25:09;6.60;99.90
4739;DHT22;2383;48.632;10.156;2024-03-06T02:29:11;6.70;99.90
4739;DHT22;2383;48.632;10.156;2024-03-06T02:33:13;6.60;99.90
4739;DHT22;2383;48.632;10.156;2024-03-06T02:37:15;6.70;99.90
4739;DHT22;2383;48.632;10.156;2024-03-06T02:41:17;6.80;99.90
4739;DHT22;2383;48.632;10.156;2024-03-06T02:45:19;6.20;99.90
4739;DHT22;2383;48.632;10.156;2024-03-06T02:49:21;6.20;99.90
4739;DHT22;2383;48.632;10.156;2024-03-06T02:53:23;6.40;99.90
4739;DHT22;2383;48.632;10.156;2024-03-06T02:57:27;6.40;99.90
4739;DHT22;2383;48.632;10.156;2024-03-06T03:01:32;6.50;99.90
4739;DHT22;2383;48.632;10.156;2024-03-06T03:05:35;6.40;99.90
4739;DHT22;2383;48.632;10.156;2024-03-06T03:09:37;6.20;99.90
4739;DHT22;2383;48.632;10.156;2024-03-06T03:13:40;6.30;99.90
4739;DHT22;2383;48.632;10.156;2024-03-06T03:17:42;6.10;99.90
4739;DHT22;2383;48.632;10.156;2024-03-06T03:21:44;5.90;99.90
4739;DHT22;2383;48.632;10.156;2024-03-06T03:25:46;5.90;99.90
4739;DHT22;2383;48.632;10.156;2024-03-06T03:29:48;6.10;99.90
4739;DHT22;2383;48.632;10.156;2024-03-06T03:33:50;6.10;99.90
4739;DHT22;2383;48.632;10.156;2024-03-06T03:37:52;6.00;99.90
4739;DHT22;2383;48.632;10.156;2024-03-06T03:41:54;5.90;99.90
4739;DHT22;2383;48.632;10.156;2024-03-06T03:45:56;6.00;99.90
4739;DHT22;2383;48.632;10.156;2024-03-06T03:49:58;6.10;99.90
4739;DHT22;2383;48.632;10.156;2024-03-06T03:54:11;5.90;99.90
4739;DHT22;2383;48.632;10.156;2024-03-06T03:58:13;5.50;99.90
4739;DHT22;2383;48.632;10.156;2024-03-06T04:02:15;5.70;99.90
4739;DHT22;2383;48.632;10.156;2024-03-06T04:06:17;5.60;99.90
4739;DHT22;2383;48.632;10.156;2024-03-06T04:10:20;5.90;99.90
4739;DHT22;2383;48.632;10.156;2024-03-06T04:14:22;6.20;99.90
4739;DHT22;2383;48.632;10.156;2024-03-06T04:18:24;5.20;99.90
4739;DHT22;2383;48.632;10.156;2024-03-06T04:22:26;5.40;99.90
4739;DHT22;2383;48.632;10.156;2024-03-06T04:26:28;6.00;99.90
4739;DHT22;2383;48.632;10.156;2024-03-06T04:30:30;5.90;99.90
4739;DHT22;2383;48.632;10.156;2024-03-06T04:34:32;6.00;99.90
4739;DHT22;2383;48.632;10.156;2024-03-06T04:38:34;6.20;99.90
4739;DHT22;2383;48.632;10.156;2024-03-06T04:42:36;6.30;99.90
4739;DHT22;2383;48.632;10.156;2024-03-06T04:46:38;5.90;99.90
4739;DHT22;2383;48.632;10.156;2024-03-06T04:50:40;5.80;99.90
4739;DHT22;2383;48.632;10.156;2024-03-06T04:54:42;5.80;99.90
4739;DHT22;2383;48.632;10.156;2024-03-06T04:58:45;5.70;99.90
4739;DHT22;2383;48.632;10.156;2024-03-06T05:02:47;5.50;99.90
4739;DHT22;2383;48.632;10.156;2024-03-06T05:07:08;5.10;99.90
4739;DHT22;2383;48.632;10.156;2024-03-06T05:11:27;5.00;99.90
4739;DHT22;2383;48.632;10.156;2024-03-06T05:15:46;5.10;99.90
4739;DHT22;2383;48.632;10.156;2024-03-06T05:20:07;3.90;99.90
4739;DHT22;2383;48.632;10.156;2024-03-06T05:24:26;4.80;99.90
4739;DHT22;2383;48.632;10.156;2024-03-06T05:28:46;4.90;99.90
4739;DHT22;2383;48.632;10.156;2024-03-06T05:33:05;5.30;99.90
4739;DHT22;2383;48.632;10.156;2024-03-06T05:37:24;4.00;99.90
4739;DHT22;2383;48.632;10.156;2024-03-06T05:41:44;4.50;99.90
4739;DHT22;2383;48.632;10.156;2024-03-06T05:46:03;3.50;99.90
4739;DHT22;2383;48.632;10.156;2024-03-06T05:50:23;3.40;99.90
4739;DHT22;2383;48.632;10.156;2024-03-06T05:54:43;3.50;99.90
4739;DHT22;2383;48.632;10.156;2024-03-06T05:59:02;3.80;99.90
4739;DHT22;2383;48.632;10.156;2024-03-06T06:03:07;3.70;99.90
4739;DHT22;2383;48.632;10.156;2024-03-06T06:07:09;3.30;99.90
4739;DHT22;2383;48.632;10.156;2024-03-06T06:11:11;3.80;99.90
4739;DHT22;2383;48.632;10.156;2024-03-06T06:15:13;4.50;99.90
4739;DHT22;2383;48.632;10.156;2024-03-06T06:19:15;4.20;99.90
4739;DHT22;2383;48.632;10.156;2024-03-06T06:23:18;4.80;99.90
4739;DHT22;2383;48.632;10.156;2024-03-06T06:27:20;4.90;99.90
4739;DHT22;2383;48.632;10.156;2024-03-06T06:31:22;4.70;99.90
4739;DHT22;2383;48.632;10.156;2024-03-06T06:35:25;4.70;99.90
4739;DHT22;2383;48.632;10.156;2024-03-06T06:39:27;4.40;99.90
4739;DHT22;2383;48.632;10.156;2024-03-06T06:43:29;4.00;99.90
4739;DHT22;2383;48.632;10.156;2024-03-06T06:47:32;4.20;99.90
4739;DHT22;2383;48.632;10.156;2024-03-06T06:51:33;4.50;99.90
4739;DHT22;2383;48.632;10.156;2024-03-06T06:55:36;3.60;99.90
4739;DHT22;2383;48.632;10.156;2024-03-06T06:59:39;4.20;99.90
4739;DHT22;2383;48.632;10.156;2024-03-06T07:03:42;4.30;99.90
4739;DHT22;2383;48.632;10.156;2024-03-06T07:07:44;4.60;99.90
4739;DHT22;2383;48.632;10.156;2024-03-06T07:11:46;4.70;99.90
4739;DHT22;2383;48.632;10.156;2024-03-06T07:15:48;4.50;99.90
4739;DHT22;2383;48.632;10.156;2024-03-06T07:19:50;4.70;99.90
4739;DHT22;2383;48.632;10.156;2024-03-06T07:23:53;4.10;99.90
4739;DHT22;2383;48.632;10.156;2024-03-06T07:27:56;4.60;99.90
4739;DHT22;2383;48.632;10.156;2024-03-06T07:31:57;4.40;99.90
4739;DHT22;2383;48.632;10.156;2024-03-06T07:36:00;4.30;99.90
4739;DHT22;2383;48.632;10.156;2024-03-06T07:40:01;3.60;99.90
4739;DHT22;2383;48.632;10.156;2024-03-06T07:44:05;3.60;99.90
4739;DHT22;2383;48.632;10.156;2024-03-06T07:48:07;3.70;99.90
4739;DHT22;2383;48.632;10.156;2024-03-06T07:52:09;3.70;99.90
4739;DHT22;2383;48.632;10.156;2024-03-06T07:56:11;2.80;99.90
4739;DHT22;2383;48.632;10.156;2024-03-06T08:00:14;2.60;99.90
4739;DHT22;2383;48.632;10.156;2024-03-06T08:04:16;2.20;99.90
4739;DHT22;2383;48.632;10.156;2024-03-06T08:08:19;2.10;99.90
4739;DHT22;2383;48.632;10.156;2024-03-06T08:12:21;2.20;99.90
4739;DHT22;2383;48.632;10.156;2024-03-06T08:16:23;2.40;99.90
4739;DHT22;2383;48.632;10.156;2024-03-06T08:20:24;3.10;99.90
4739;DHT22;2383;48.632;10.156;2024-03-06T08:24:26;3.30;99.90
4739;DHT22;2383;48.632;10.156;2024-03-06T08:28:29;3.20;99.90
4739;DHT22;2383;48.632;10.156;2024-03-06T08:32:34;2.60;99.90
4739;DHT22;2383;48.632;10.156;2024-03-06T08:36:37;3.10;99.90
4739;DHT22;2383;48.632;10.156;2024-03-06T08:40:39;2.90;99.90
4739;DHT22;2383;48.632;10.156;2024-03-06T08:44:46;3.20;99.90
4739;DHT22;2383;48.632;10.156;2024-03-06T08:48:48;3.30;99.90
4739;DHT22;2383;48.632;10.156;2024-03-06T08:52:50;4.40;99.90
4739;DHT22;2383;48.632;10.156;2024-03-06T08:56:53;4.10;99.90
4739;DHT22;2383;48.632;10.156;2024-03-06T09:00:59;4.20;99.90
4739;DHT22;2383;48.632;10.156;2024-03-06T09:05:01;3.40;99.90
4739;DHT22;2383;48.632;10.156;2024-03-06T09:09:06;3.30;99.90
4739;DHT22;2383;48.632;10.156;2024-03-06T09:13:08;2.90;99.90
4739;DHT22;2383;48.632;10.156;2024-03-06T09:17:11;3.30;99.90
4739;DHT22;2383;48.632;10.156;2024-03-06T09:21:16;2.70;99.90
4739;DHT22;2383;48.632;10.156;2024-03-06T09:25:18;3.50;99.90
4739;DHT22;2383;48.632;10.156;2024-03-06T09:29:20;3.20;99.90
4739;DHT22;2383;48.632;10.156;2024-03-06T09:33:23;2.90;99.90
4739;DHT22;2383;48.632;10.156;2024-03-06T09:37:25;2.80;99.90
4739;DHT22;2383;48.632;10.156;2024-03-06T09:41:28;2.60;99.90
4739;DHT22;2383;48.632;10.156;2024-03-06T09:45:30;2.60;99.90
4739;DHT22;2383;48.632;10.156;2024-03-06T09:49:32;3.00;99.90
4739;DHT22;2383;48.632;10.156;2024-03-06T09:53:35;2.80;99.90
4739;DHT22;2383;48.632;10.156;2024-03-06T09:57:38;3.40;99.90
4739;DHT22;2383;48.632;10.156;2024-03-06T10:01:54;2.50;99.90
4739;DHT22;2383;48.632;10.156;2024-03-06T10:05:56;3.40;99.90
4739;DHT22;2383;48.632;10.156;2024-03-06T10:10:01;3.50;99.90
4739;DHT22;2383;48.632;10.156;2024-03-06T10:14:03;4.40;99.90
4739;DHT22;2383;48.632;10.156;2024-03-06T10:18:15;3.90;99.90
4739;DHT22;2383;48.632;10.156;2024-03-06T10:22:19;4.40;99.90
4739;DHT22;2383;48.632;10.156;2024-03-06T10:26:22;3.30;99.90
4739;DHT22;2383;48.632;10.156;2024-03-06T10:30:27;3.70;99.90
4739;DHT22;2383;48.632;10.156;2024-03-06T10:34:29;5.20;99.90
4739;DHT22;2383;48.632;10.156;2024-03-06T10:38:36;4.80;99.90
4739;DHT22;2383;48.632;10.156;2024-03-06T10:42:39;5.60;99.90
4739;DHT22;2383;48.632;10.156;2024-03-06T10:46:44;5.70;99.90
4739;DHT22;2383;48.632;10.156;2024-03-06T10:50:49;5.50;99.90
4739;DHT22;2383;48.632;10.156;2024-03-06T10:54:53;5.70;99.90
4739;DHT22;2383;48.632;10.156;2024-03-06T10:58:56;5.50;99.90
4739;DHT22;2383;48.632;10.156;2024-03-06T11:03:00;6.40;99.90
4739;DHT22;2383;48.632;10.156;2024-03-06T11:07:05;4.90;99.90
4739;DHT22;2383;48.632;10.156;2024-03-06T11:11:21;5.70;99.90
4739;DHT22;2383;48.632;10.156;2024-03-06T11:15:24;4.90;99.90
4739;DHT22;2383;48.632;10.156;2024-03-06T11:19:26;5.20;99.90
4739;DHT22;2383;48.632;10.156;2024-03-06T11:23:28;5.20;99.90
4739;DHT22;2383;48.632;10.156;2024-03-06T11:27:31;5.60;99.90
4739;DHT22;2383;48.632;10.156;2024-03-06T11:31:33;5.60;99.90
4739;DHT22;2383;48.632;10.156;2024-03-06T11:35:36;5.20;99.90
4739;DHT22;2383;48.632;10.156;2024-03-06T11:39:39;5.00;99.90
4739;DHT22;2383;48.632;10.156;2024-03-06T11:43:43;5.60;99.90
4739;DHT22;2383;48.632;10.156;2024-03-06T11:48:15;4.80;99.90
4739;DHT22;2383;48.632;10.156;2024-03-06T11:52:22;4.00;99.90
4739;DHT22;2383;48.632;10.156;2024-03-06T11:56:24;4.90;99.90
4739;DHT22;2383;48.632;10.156;2024-03-06T12:00:26;5.60;99.90
4739;DHT22;2383;48.632;10.156;2024-03-06T12:04:28;5.90;99.90
4739;DHT22;2383;48.632;10.156;2024-03-06T12:08:30;6.20;99.90
4739;DHT22;2383;48.632;10.156;2024-03-06T12:12:32;4.60;99.90
4739;DHT22;2383;48.632;10.156;2024-03-06T12:16:34;4.70;99.90
4739;DHT22;2383;48.632;10.156;2024-03-06T12:20:41;5.50;99.90
4739;DHT22;2383;48.632;10.156;2024-03-06T12:24:43;4.70;99.90
4739;DHT22;2383;48.632;10.156;2024-03-06T12:28:45;3.70;99.90
4739;DHT22;2383;48.632;10.156;2024-03-06T12:32:59;4.50;99.90
4739;DHT22;2383;48.632;10.156;2024-03-06T12:37:09;4.40;99.90
4739;DHT22;2383;48.632;10.156;2024-03-06T12:41:12;5.30;99.90
4739;DHT22;2383;48.632;10.156;2024-03-06T12:45:15;5.30;99.90
4739;DHT22;2383;48.632;10.156;2024-03-06T12:49:18;5.70;99.90
4739;DHT22;2383;48.632;10.156;2024-03-06T12:53:21;5.00;99.90
4739;DHT22;2383;48.632;10.156;2024-03-06T12:57:23;5.10;99.90
4739;DHT22;2383;48.632;10.156;2024-03-06T13:01:25;5.30;99.90
4739;DHT22;2383;48.632;10.156;2024-03-06T13:05:27;3.90;99.90
4739;DHT22;2383;48.632;10.156;2024-03-06T13:09:30;5.30;99.90
4739;DHT22;2383;48.632;10.156;2024-03-06T13:13:32;6.00;99.90
4739;DHT22;2383;48.632;10.156;2024-03-06T13:17:36;5.50;99.90
4739;DHT22;2383;48.632;10.156;2024-03-06T13:21:38;5.80;99.90
4739;DHT22;2383;48.632;10.156;2024-03-06T13:25:40;5.20;99.90
4739;DHT22;2383;48.632;10.156;2024-03-06T13:29:45;4.90;99.90
4739;DHT22;2383;48.632;10.156;2024-03-06T13:33:47;4.40;99.90
4739;DHT22;2383;48.632;10.156;2024-03-06T13:37:50;5.00;99.90
4739;DHT22;2383;48.632;10.156;2024-03-06T13:41:53;6.00;99.90
4739;DHT22;2383;48.632;10.156;2024-03-06T13:45:55;5.60;99.90
4739;DHT22;2383;48.632;10.156;2024-03-06T13:49:57;5.60;99.90
4739;DHT22;2383;48.632;10.156;2024-03-06T13:53:59;6.20;99.90
4739;DHT22;2383;48.632;10.156;2024-03-06T13:58:01;5.90;99.90
4739;DHT22;2383;48.632;10.156;2024-03-06T14:02:06;5.90;99.90
4739;DHT22;2383;48.632;10.156;2024-03-06T14:06:09;6.10;99.90
4739;DHT22;2383;48.632;10.156;2024-03-06T14:10:11;5.50;99.90
4739;DHT22;2383;48.632;10.156;2024-03-06T14:14:13;5.50;99.90
4739;DHT22;2383;48.632;10.156;2024-03-06T14:18:15;5.70;99.90
4739;DHT22;2383;48.632;10.156;2024-03-06T14:22:18;5.90;99.90
4739;DHT22;2383;48.632;10.156;2024-03-06T14:26:20;6.10;99.90
4739;DHT22;2383;48.632;10.156;2024-03-06T14:30:22;6.30;99.90
4739;DHT22;2383;48.632;10.156;2024-03-06T14:34:24;6.20;99.90
4739;DHT22;2383;48.632;10.156;2024-03-06T14:38:26;6.70;99.90
4739;DHT22;2383;48.632;10.156;2024-03-06T14:42:28;6.60;99.90
4739;DHT22;2383;48.632;10.156;2024-03-06T14:46:30;6.30;99.90
4739;DHT22;2383;48.632;10.156;2024-03-06T14:50:32;6.70;99.90
4739;DHT22;2383;48.632;10.156;2024-03-06T14:54:34;7.10;99.90
4739;DHT22;2383;48.632;10.156;2024-03-06T14:58:37;7.10;99.90
4739;DHT22;2383;48.632;10.156;2024-03-06T15:02:40;7.50;99.90
4739;DHT22;2383;48.632;10.156;2024-03-06T15:06:42;7.50;99.90
4739;DHT22;2383;48.632;10.156;2024-03-06T15:10:44;6.40;99.90
4739;DHT22;2383;48.632;10.156;2024-03-06T15:14:46;6.70;99.90
4739;DHT22;2383;48.632;10.156;2024-03-06T15:18:58;7.00;99.90
4739;DHT22;2383;48.632;10.156;2024-03-06T15:23:00;6.70;99.90
4739;DHT22;2383;48.632;10.156;2024-03-06T15:27:03;6.40;99.90
4739;DHT22;2383;48.632;10.156;2024-03-06T15:31:06;6.90;99.90
4739;DHT22;2383;48.632;10.156;2024-03-06T15:35:08;7.10;99.90
4739;DHT22;2383;48.632;10.156;2024-03-06T15:39:10;7.00;99.90
4739;DHT22;2383;48.632;10.156;2024-03-06T15:43:13;7.40;99.90
4739;DHT22;2383;48.632;10.156;2024-03-06T15:47:16;7.20;99.90
4739;DHT22;2383;48.632;10.156;2024-03-06T15:51:19;7.30;99.90
4739;DHT22;2383;48.632;10.156;2024-03-06T15:55:21;7.20;99.90
4739;DHT22;2383;48.632;10.156;2024-03-06T15:59:24;7.30;99.90
4739;DHT22;2383;48.632;10.156;2024-03-06T16:03:26;7.60;99.90
4739;DHT22;2383;48.632;10.156;2024-03-06T16:07:28;7.30;99.90
4739;DHT22;2383;48.632;10.156;2024-03-06T16:11:31;7.50;99.90
4739;DHT22;2383;48.632;10.156;2024-03-06T16:15:34;7.20;99.90
4739;DHT22;2383;48.632;10.156;2024-03-06T16:19:39;6.50;99.90
4739;DHT22;2383;48.632;10.156;2024-03-06T16:23:48;6.40;99.90
4739;DHT22;2383;48.632;10.156;2024-03-06T16:27:50;6.60;99.90
4739;DHT22;2383;48.632;10.156;2024-03-06T16:31:52;6.00;99.90
4739;DHT22;2383;48.632;10.156;2024-03-06T16:35:54;6.50;99.90
4739;DHT22;2383;48.632;10.156;2024-03-06T16:39:56;7.00;99.90
4739;DHT22;2383;48.632;10.156;2024-03-06T16:43:58;7.10;99.90
4739;DHT22;2383;48.632;10.156;2024-03-06T16:48:00;7.10;99.90
4739;DHT22;2383;48.632;10.156;2024-03-06T16:52:03;6.70;99.90
4739;DHT22;2383;48.632;10.156;2024-03-06T16:56:05;6.10;99.90
4739;DHT22;2383;48.632;10.156;2024-03-06T17:00:08;6.30;99.90
4739;DHT22;2383;48.632;10.156;2024-03-06T17:04:10;6.40;99.90
4739;DHT22;2383;48.632;10.156;2024-03-06T17:08:12;6.70;99.90
4739;DHT22;2383;48.632;10.156;2024-03-06T17:12:17;7.20;99.90
4739;DHT22;2383;48.632;10.156;2024-03-06T17:16:19;6.90;99.90
4739;DHT22;2383;48.632;10.156;2024-03-06T17:20:21;7.00;99.90
4739;DHT22;2383;48.632;10.156;2024-03-06T17:24:23;7.20;99.90
4739;DHT22;2383;48.632;10.156;2024-03-06T17:28:25;7.00;99.90
4739;DHT22;2383;48.632;10.156;2024-03-06T17:32:28;6.80;99.90
4739;DHT22;2383;48.632;10.156;2024-03-06T17:36:32;6.80;99.90
4739;DHT22;2383;48.632;10.156;2024-03-06T17:40:38;7.00;99.90
4739;DHT22;2383;48.632;10.156;2024-03-06T17:44:41;7.50;99.90
4739;DHT22;2383;48.632;10.156;2024-03-06T17:48:43;7.70;99.90
4739;DHT22;2383;48.632;10.156;2024-03-06T17:52:45;7.10;99.90
4739;DHT22;2383;48.632;10.156;2024-03-06T17:56:48;7.40;99.90
4739;DHT22;2383;48.632;10.156;2024-03-06T18:00:50;7.60;99.90
4739;DHT22;2383;48.632;10.156;2024-03-06T18:04:52;7.70;99.90
4739;DHT22;2383;48.632;10.156;2024-03-06T18:08:54;7.40;99.90
4739;DHT22;2383;48.632;10.156;2024-03-06T18:12:56;7.70;99.90
4739;DHT22;2383;48.632;10.156;2024-03-06T18:16:58;7.60;99.90
4739;DHT22;2383;48.632;10.156;2024-03-06T18:21:00;7.60;99.90
4739;DHT22;2383;48.632;10.156;2024-03-06T18:25:04;7.70;99.90
4739;DHT22;2383;48.632;10.156;2024-03-06T18:29:06;7.70;99.90
4739;DHT22;2383;48.632;10.156;2024-03-06T18:33:09;7.80;99.90
4739;DHT22;2383;48.632;10.156;2024-03-06T18:37:11;7.80;99.90
4739;DHT22;2383;48.632;10.156;2024-03-06T18:41:14;7.70;99.90
4739;DHT22;2383;48.632;10.156;2024-03-06T18:45:17;7.70;99.90
4739;DHT22;2383;48.632;10.156;2024-03-06T18:49:20;7.80;99.90
4739;DHT22;2383;48.632;10.156;2024-03-06T18:53:24;7.60;99.90
4739;DHT22;2383;48.632;10.156;2024-03-06T18:57:26;7.70;99.90
4739;DHT22;2383;48.632;10.156;2024-03-06T19:01:29;7.80;99.90
4739;DHT22;2383;48.632;10.156;2024-03-06T19:05:31;7.80;99.90
4739;DHT22;2383;48.632;10.156;2024-03-06T19:09:34;7.60;99.90
4739;DHT22;2383;48.632;10.156;2024-03-06T19:13:36;7.70;99.90
4739;DHT22;2383;48.632;10.156;2024-03-06T19:17:38;7.60;99.90
4739;DHT22;2383;48.632;10.156;2024-03-06T19:21:41;7.60;99.90
4739;DHT22;2383;48.632;10.156;2024-03-06T19:25:43;7.60;99.90
4739;DHT22;2383;48.632;10.156;2024-03-06T19:29:45;7.40;99.90
4739;DHT22;2383;48.632;10.156;2024-03-06T19:33:47;7.40;99.90
4739;DHT22;2383;48.632;10.156;2024-03-06T19:37:49;7.50;99.90
4739;DHT22;2383;48.632;10.156;2024-03-06T19:41:51;7.30;99.90
4739;DHT22;2383;48.632;10.156;2024-03-06T19:45:55;7.30;99.90
4739;DHT22;2383;48.632;10.156;2024-03-06T19:49:57;7.10;99.90
4739;DHT22;2383;48.632;10.156;2024-03-06T19:53:59;7.00;99.90
4739;DHT22;2383;48.632;10.156;2024-03-06T19:58:01;7.10;99.90
4739;DHT22;2383;48.632;10.156;2024-03-06T20:02:05;6.60;99.90
4739;DHT22;2383;48.632;10.156;2024-03-06T20:06:08;6.50;99.90
4739;DHT22;2383;48.632;10.156;2024-03-06T20:10:10;6.30;99.90
4739;DHT22;2383;48.632;10.156;2024-03-06T20:14:12;6.30;99.90
4739;DHT22;2383;48.632;10.156;2024-03-06T20:18:15;6.10;99.90
4739;DHT22;2383;48.632;10.156;2024-03-06T20:22:17;5.80;99.90
4739;DHT22;2383;48.632;10.156;2024-03-06T20:26:19;6.00;99.90
4739;DHT22;2383;48.632;10.156;2024-03-06T20:30:21;6.00;99.90
4739;DHT22;2383;48.632;10.156;2024-03-06T20:34:23;6.00;99.90
4739;DHT22;2383;48.632;10.156;2024-03-06T20:38:25;5.90;99.90
4739;DHT22;2383;48.632;10.156;2024-03-06T20:42:27;5.80;99.90
4739;DHT22;2383;48.632;10.156;2024-03-06T20:46:30;5.70;99.90
4739;DHT22;2383;48.632;10.156;2024-03-06T20:50:32;5.70;99.90
4739;DHT22;2383;48.632;10.156;2024-03-06T20:54:34;5.70;99.90
4739;DHT22;2383;48.632;10.156;2024-03-06T20:58:36;5.80;99.90
4739;DHT22;2383;48.632;10.156;2024-03-06T21:02:38;5.60;99.90
4739;DHT22;2383;48.632;10.156;2024-03-06T21:06:41;5.70;99.90
4739;DHT22;2383;48.632;10.156;2024-03-06T21:10:43;5.80;99.90
4739;DHT22;2383;48.632;10.156;2024-03-06T21:14:46;5.80;99.90
4739;DHT22;2383;48.632;10.156;2024-03-06T21:18:48;5.90;99.90
4739;DHT22;2383;48.632;10.156;2024-03-06T21:22:50;5.80;99.90
4739;DHT22;2383;48.632;10.156;2024-03-06T21:26:52;5.80;99.90
4739;DHT22;2383;48.632;10.156;2024-03-06T21:30:54;5.40;99.90
4739;DHT22;2383;48.632;10.156;2024-03-06T21:34:56;5.30;99.90
4739;DHT22;2383;48.632;10.156;2024-03-06T21:39:00;5.00;99.90
4739;DHT22;2383;48.632;10.156;2024-03-06T21:43:06;5.10;99.90
4739;DHT22;2383;48.632;10.156;2024-03-06T21:47:08;5.20;99.90
4739;DHT22;2383;48.632;10.156;2024-03-06T21:51:10;5.10;99.90
4739;DHT22;2383;48.632;10.156;2024-03-06T21:55:12;5.30;99.90
4739;DHT22;2383;48.632;10.156;2024-03-06T21:59:15;5.10;99.90
4739;DHT22;2383;48.632;10.156;2024-03-06T22:03:17;5.10;99.90
4739;DHT22;2383;48.632;10.156;2024-03-06T22:07:19;5.00;99.90
4739;DHT22;2383;48.632;10.156;2024-03-06T22:11:21;5.00;99.90
4739;DHT22;2383;48.632;10.156;2024-03-06T22:15:23;5.00;99.90
4739;DHT22;2383;48.632;10.156;2024-03-06T22:19:25;4.90;99.90
4739;DHT22;2383;48.632;10.156;2024-03-06T22:23:27;4.90;99.90
4739;DHT22;2383;48.632;10.156;2024-03-06T22:27:30;4.90;99.90
4739;DHT22;2383;48.632;10.156;2024-03-06T22:31:32;4.90;99.90
4739;DHT22;2383;48.632;10.156;2024-03-06T22:35:34;4.80;99.90
4739;DHT22;2383;48.632;10.156;2024-03-06T22:39:37;5.00;99.90
4739;DHT22;2383;48.632;10.156;2024-03-06T22:43:40;4.90;99.90
4739;DHT22;2383;48.632;10.156;2024-03-06T22:47:42;4.70;99.90
4739;DHT22;2383;48.632;10.156;2024-03-06T22:51:44;4.70;99.90
4739;DHT22;2383;48.632;10.156;2024-03-06T22:55:46;4.70;99.90
4739;DHT22;2383;48.632;10.156;2024-03-06T22:59:48;4.60;99.90
4739;DHT22;2383;48.632;10.156;2024-03-06T23:03:50;4.70;99.90
4739;DHT22;2383;48.632;10.156;2024-03-06T23:07:52;4.20;99.90
4739;DHT22;2383;48.632;10.156;2024-03-06T23:11:55;4.40;99.90
4739;DHT22;2383;48.632;10.156;2024-03-06T23:15:57;4.80;99.90
4739;DHT22;2383;48.632;10.156;2024-03-06T23:20:00;4.80;99.90
4739;DHT22;2383;48.632;10.156;2024-03-06T23:24:02;4.90;99.90
4739;DHT22;2383;48.632;10.156;2024-03-06T23:28:05;4.90;99.90
4739;DHT22;2383;48.632;10.156;2024-03-06T23:32:07;5.00;99.90
4739;DHT22;2383;48.632;10.156;2024-03-06T23:36:09;5.30;99.90
4739;DHT22;2383;48.632;10.156;2024-03-06T23:40:13;5.60;99.90
4739;DHT22;2383;48.632;10.156;2024-03-06T23:44:18;5.40;99.90
4739;DHT22;2383;48.632;10.156;2024-03-06T23:48:21;5.60;99.90
4739;DHT22;2383;48.632;10.156;2024-03-06T23:52:24;5.60;99.90
4739;DHT22;2383;48.632;10.156;2024-03-06T23:56:26;5.40;99.90
